createdAt,value
2023-04-26T00:00:45.448Z,5.21
2023-04-26T00:01:45.444Z,5.17
2023-04-26T00:02:45.523Z,5.10
2023-04-26T00:03:46.664Z,5.02
2023-04-26T00:04:46.644Z,4.97
2023-04-26T00:05:45.514Z,4.82
2023-04-26T00:06:45.427Z,4.87
2023-04-26T00:07:45.401Z,4.80
2023-04-26T00:08:45.385Z,4.74
2023-04-26T00:09:45.388Z,4.67
2023-04-26T00:10:45.371Z,4.67
2023-04-26T00:11:45.385Z,4.70
2023-04-26T00:12:45.362Z,4.58
2023-04-26T00:13:45.342Z,4.53
2023-04-26T00:14:45.354Z,4.49
2023-04-26T00:15:45.329Z,4.55
2023-04-26T00:16:45.411Z,4.49
2023-04-26T00:17:45.379Z,4.41
2023-04-26T00:18:45.293Z,4.41
2023-04-26T00:19:45.339Z,4.42
2023-04-26T00:20:45.900Z,4.35
2023-04-26T00:22:37.694Z,4.35
2023-04-26T00:23:37.684Z,4.34
2023-04-26T00:24:37.677Z,4.28
2023-04-26T00:25:37.662Z,4.26
2023-04-26T00:26:37.652Z,4.22
2023-04-26T00:27:37.663Z,4.32
2023-04-26T00:28:37.644Z,4.30
2023-04-26T00:29:37.636Z,4.17
2023-04-26T00:30:37.651Z,4.23
2023-04-26T00:31:37.669Z,4.23
2023-04-26T00:32:37.693Z,4.12
2023-04-26T00:33:37.595Z,4.08
2023-04-26T00:34:37.595Z,4.06
2023-04-26T00:35:37.583Z,4.04
2023-04-26T00:36:37.585Z,3.94
2023-04-26T00:37:37.588Z,3.95
2023-04-26T00:38:37.561Z,3.91
2023-04-26T00:39:37.591Z,3.96
2023-04-26T00:40:38.638Z,3.81
2023-04-26T00:41:38.639Z,3.84
2023-04-26T00:42:38.629Z,3.86
2023-04-26T00:43:38.674Z,3.62
2023-04-26T00:44:38.618Z,3.65
2023-04-26T00:45:38.641Z,3.68
2023-04-26T00:46:38.591Z,3.62
2023-04-26T00:47:39.547Z,3.51
2023-04-26T00:48:38.576Z,3.42
2023-04-26T00:49:38.577Z,3.37
2023-04-26T00:50:38.576Z,3.50
2023-04-26T00:51:38.555Z,3.40
2023-04-26T00:52:38.587Z,3.36
2023-04-26T00:53:38.558Z,3.28
2023-04-26T00:54:38.588Z,3.36
2023-04-26T00:55:38.579Z,3.32
2023-04-26T00:56:38.551Z,3.28
2023-04-26T00:57:38.504Z,3.32
2023-04-26T00:58:38.521Z,3.32
2023-04-26T00:59:38.516Z,3.28
2023-04-26T01:00:38.516Z,3.32
2023-04-26T01:01:38.607Z,3.13
2023-04-26T01:02:38.635Z,3.14
2023-04-26T01:03:38.651Z,3.21
2023-04-26T01:04:38.662Z,3.16
2023-04-26T01:05:38.454Z,3.19
2023-04-26T01:06:38.451Z,3.13
2023-04-26T01:07:38.441Z,3.13
2023-04-26T01:08:38.429Z,3.18
2023-04-26T01:09:38.423Z,3.05
2023-04-26T01:10:38.424Z,3.04
2023-04-26T01:11:38.395Z,2.97
2023-04-26T01:12:38.668Z,3.11
2023-04-26T01:13:38.431Z,3.04
2023-04-26T01:14:38.385Z,2.95
2023-04-26T01:15:38.382Z,2.93
2023-04-26T01:16:38.419Z,2.89
2023-04-26T01:17:38.419Z,2.85
2023-04-26T01:18:38.371Z,2.83
2023-04-26T01:19:38.386Z,2.89
2023-04-26T01:20:38.353Z,2.89
2023-04-26T01:21:38.327Z,2.83
2023-04-26T01:22:38.334Z,2.85
2023-04-26T01:23:38.305Z,2.83
2023-04-26T01:24:38.316Z,2.79
2023-04-26T01:25:38.305Z,2.82
2023-04-26T01:26:39.040Z,2.74
2023-04-26T01:27:40.133Z,2.79
2023-04-26T01:28:38.277Z,2.77
2023-04-26T01:29:38.296Z,2.77
2023-04-26T01:30:38.330Z,2.87
2023-04-26T01:31:39.060Z,2.79
2023-04-26T01:32:38.301Z,2.82
2023-04-26T01:33:38.235Z,2.79
2023-04-26T01:34:38.248Z,2.74
2023-04-26T01:35:38.242Z,2.75
2023-04-26T01:36:38.230Z,2.74
2023-04-26T01:37:38.220Z,2.67
2023-04-26T01:38:38.195Z,2.57
2023-04-26T01:39:38.189Z,2.64
2023-04-26T01:40:38.196Z,2.65
2023-04-26T01:41:38.183Z,2.54
2023-04-26T01:42:38.148Z,2.61
2023-04-26T01:43:38.160Z,2.47
2023-04-26T01:44:38.161Z,2.51
2023-04-26T01:45:38.130Z,2.47
2023-04-26T01:46:38.179Z,2.44
2023-04-26T01:47:39.189Z,2.39
2023-04-26T01:48:38.112Z,2.43
2023-04-26T01:49:38.119Z,2.42
2023-04-26T01:50:38.640Z,2.46
2023-04-26T01:51:38.111Z,2.42
2023-04-26T01:52:38.091Z,2.43
2023-04-26T01:53:38.083Z,2.24
2023-04-26T01:54:38.076Z,2.26
2023-04-26T01:55:38.054Z,2.08
2023-04-26T01:56:38.762Z,2.15
2023-04-26T01:57:38.077Z,2.17
2023-04-26T01:58:38.044Z,2.02
2023-04-26T01:59:38.025Z,2.02
2023-04-26T02:00:38.007Z,2.15
2023-04-26T02:01:38.048Z,2.15
2023-04-26T02:02:38.124Z,2.04
2023-04-26T02:03:38.015Z,2.08
2023-04-26T02:04:38.026Z,2.10
2023-04-26T02:05:37.985Z,2.08
2023-04-26T02:06:37.989Z,2.08
2023-04-26T02:07:37.945Z,2.04
2023-04-26T02:08:37.967Z,2.04
2023-04-26T02:09:37.947Z,2.02
2023-04-26T02:10:37.954Z,1.99
2023-04-26T02:11:37.949Z,2.00
2023-04-26T02:12:37.930Z,1.95
2023-04-26T02:13:37.914Z,2.13
2023-04-26T02:14:37.912Z,2.14
2023-04-26T02:15:38.010Z,2.14
2023-04-26T02:16:37.906Z,2.13
2023-04-26T02:17:37.949Z,2.14
2023-04-26T02:18:37.872Z,2.20
2023-04-26T02:19:37.903Z,2.17
2023-04-26T02:20:37.863Z,2.18
2023-04-26T02:21:38.633Z,2.22
2023-04-26T02:22:37.853Z,2.15
2023-04-26T02:23:37.828Z,2.31
2023-04-26T02:24:37.832Z,2.14
2023-04-26T02:25:37.819Z,2.29
2023-04-26T02:26:37.842Z,2.24
2023-04-26T02:27:37.809Z,2.15
2023-04-26T02:28:37.790Z,2.20
2023-04-26T02:29:44.229Z,2.11
2023-04-26T02:30:39.790Z,2.06
2023-04-26T02:31:37.814Z,1.99
2023-04-26T02:32:37.783Z,1.97
2023-04-26T02:33:37.761Z,1.76
2023-04-26T02:34:37.755Z,1.78
2023-04-26T02:35:37.754Z,1.76
2023-04-26T02:36:37.734Z,1.73
2023-04-26T02:37:37.732Z,1.68
2023-04-26T02:38:37.759Z,1.67
2023-04-26T02:39:37.698Z,1.62
2023-04-26T02:40:37.708Z,1.59
2023-04-26T02:41:37.688Z,1.63
2023-04-26T02:42:37.679Z,1.53
2023-04-26T02:43:37.678Z,1.60
2023-04-26T02:44:37.672Z,1.52
2023-04-26T02:45:37.667Z,1.53
2023-04-26T02:46:38.590Z,1.55
2023-04-26T02:47:37.675Z,1.45
2023-04-26T02:48:37.624Z,1.56
2023-04-26T02:49:37.668Z,1.55
2023-04-26T02:50:37.611Z,1.52
2023-04-26T02:51:37.626Z,1.49
2023-04-26T02:52:37.620Z,1.48
2023-04-26T02:53:37.615Z,1.35
2023-04-26T02:54:41.326Z,1.41
2023-04-26T02:55:37.585Z,1.42
2023-04-26T02:56:37.609Z,1.42
2023-04-26T02:57:38.148Z,1.41
2023-04-26T02:58:37.582Z,1.38
2023-04-26T02:59:37.597Z,1.41
2023-04-26T03:00:37.624Z,1.37
2023-04-26T03:01:37.607Z,1.37
2023-04-26T03:02:37.649Z,1.37
2023-04-26T03:03:37.837Z,1.28
2023-04-26T03:04:37.498Z,1.44
2023-04-26T03:05:37.509Z,1.26
2023-04-26T03:06:37.546Z,1.37
2023-04-26T03:07:37.494Z,1.32
2023-04-26T03:08:37.466Z,1.38
2023-04-26T03:09:38.468Z,1.41
2023-04-26T03:10:37.481Z,1.34
2023-04-26T03:11:37.463Z,1.31
2023-04-26T03:12:37.456Z,1.30
2023-04-26T03:13:39.094Z,1.40
2023-04-26T03:14:37.438Z,1.26
2023-04-26T03:15:37.418Z,1.23
2023-04-26T03:16:37.423Z,1.23
2023-04-26T03:17:37.430Z,1.12
2023-04-26T03:18:37.399Z,1.08
2023-04-26T03:19:37.402Z,1.10
2023-04-26T03:20:37.400Z,1.04
2023-04-26T03:21:37.387Z,1.06
2023-04-26T03:22:37.392Z,1.05
2023-04-26T03:23:37.363Z,0.96
2023-04-26T03:24:37.334Z,0.96
2023-04-26T03:25:37.329Z,1.05
2023-04-26T03:26:37.338Z,0.83
2023-04-26T03:27:37.359Z,0.91
2023-04-26T03:28:37.324Z,0.84
2023-04-26T03:29:37.295Z,0.86
2023-04-26T03:30:37.347Z,0.95
2023-04-26T03:31:37.306Z,0.95
2023-04-26T03:32:37.313Z,0.92
2023-04-26T03:33:37.284Z,0.84
2023-04-26T03:34:37.285Z,0.87
2023-04-26T03:35:37.294Z,0.91
2023-04-26T03:36:38.081Z,0.81
2023-04-26T03:37:37.249Z,0.77
2023-04-26T03:38:37.235Z,0.80
2023-04-26T03:39:37.246Z,0.73
2023-04-26T03:40:37.214Z,0.81
2023-04-26T03:41:37.232Z,0.83
2023-04-26T03:42:37.202Z,0.68
2023-04-26T03:43:37.180Z,0.80
2023-04-26T03:44:38.203Z,0.58
2023-04-26T03:45:37.213Z,0.68
2023-04-26T03:46:37.158Z,0.73
2023-04-26T03:47:37.180Z,0.70
2023-04-26T03:48:37.198Z,0.70
2023-04-26T03:49:37.180Z,0.68
2023-04-26T03:50:37.133Z,0.68
2023-04-26T03:51:37.143Z,0.74
2023-04-26T03:52:37.113Z,0.66
2023-04-26T03:53:37.096Z,0.69
2023-04-26T03:54:37.164Z,0.73
2023-04-26T03:55:37.082Z,0.73
2023-04-26T03:56:37.142Z,0.68
2023-04-26T03:57:37.069Z,0.69
2023-04-26T03:58:37.080Z,0.84
2023-04-26T03:59:37.059Z,0.68
2023-04-26T04:00:37.061Z,0.80
2023-04-26T04:01:37.049Z,0.80
2023-04-26T04:02:37.173Z,0.76
2023-04-26T04:03:40.044Z,0.73
2023-04-26T04:04:38.109Z,0.80
2023-04-26T04:05:37.117Z,0.86
2023-04-26T04:06:37.018Z,0.88
2023-04-26T04:07:36.993Z,0.80
2023-04-26T04:08:37.581Z,0.91
2023-04-26T04:09:37.004Z,0.92
2023-04-26T04:10:39.677Z,0.98
2023-04-26T04:11:36.980Z,0.94
2023-04-26T04:12:36.956Z,0.98
2023-04-26T04:13:36.975Z,0.95
2023-04-26T04:14:36.946Z,0.95
2023-04-26T04:15:37.037Z,0.91
2023-04-26T04:16:37.050Z,0.95
2023-04-26T04:17:38.542Z,0.94
2023-04-26T04:18:37.917Z,0.98
2023-04-26T04:19:36.894Z,0.96
2023-04-26T04:20:37.572Z,0.99
2023-04-26T04:21:36.896Z,1.08
2023-04-26T04:22:36.887Z,1.10
2023-04-26T04:23:36.894Z,1.06
2023-04-26T04:24:36.857Z,1.13
2023-04-26T04:25:36.869Z,1.12
2023-04-26T04:26:36.961Z,1.20
2023-04-26T04:27:37.569Z,1.23
2023-04-26T04:28:36.832Z,1.19
2023-04-26T04:29:36.836Z,1.34
2023-04-26T04:30:36.835Z,1.34
2023-04-26T04:31:37.704Z,1.48
2023-04-26T04:32:37.821Z,1.44
2023-04-26T04:33:36.784Z,1.53
2023-04-26T04:34:36.790Z,1.53
2023-04-26T04:35:36.767Z,1.71
2023-04-26T04:36:36.772Z,1.84
2023-04-26T04:37:37.582Z,1.95
2023-04-26T04:38:38.700Z,2.00
2023-04-26T04:39:36.753Z,2.00
2023-04-26T04:40:36.731Z,2.00
2023-04-26T04:41:36.732Z,2.00
2023-04-26T04:42:36.725Z,1.95
2023-04-26T04:43:36.728Z,2.02
2023-04-26T04:44:36.730Z,2.14
2023-04-26T04:45:36.754Z,2.15
2023-04-26T04:46:36.710Z,2.13
2023-04-26T04:47:36.682Z,2.26
2023-04-26T04:48:36.706Z,2.44
2023-04-26T04:49:36.657Z,2.62
2023-04-26T04:50:36.653Z,2.79
2023-04-26T04:51:36.651Z,3.11
2023-04-26T04:52:38.643Z,3.56
2023-04-26T04:53:36.661Z,3.88
2023-04-26T04:54:36.650Z,4.40
2023-04-26T04:55:36.627Z,4.62
2023-04-26T04:56:36.614Z,4.82
2023-04-26T04:57:36.611Z,5.12
2023-04-26T04:58:36.720Z,4.93
2023-04-26T04:59:36.581Z,4.94
2023-04-26T05:00:37.187Z,4.84
2023-04-26T05:01:36.592Z,4.75
2023-04-26T05:02:37.344Z,4.70
2023-04-26T05:03:36.692Z,5.12
2023-04-26T05:04:36.824Z,5.43
2023-04-26T05:05:36.537Z,5.97
2023-04-26T05:06:36.521Z,6.26
2023-04-26T05:07:36.540Z,6.67
2023-04-26T05:08:36.543Z,7.02
2023-04-26T05:09:36.503Z,7.39
2023-04-26T05:10:36.491Z,7.72
2023-04-26T05:11:36.494Z,7.85
2023-04-26T05:12:36.487Z,7.79
2023-04-26T05:13:36.483Z,7.94
2023-04-26T05:14:36.485Z,8.15
2023-04-26T05:15:36.471Z,7.85
2023-04-26T05:16:36.491Z,8.01
2023-04-26T05:17:36.532Z,8.24
2023-04-26T05:18:36.488Z,8.31
2023-04-26T05:19:36.443Z,8.51
2023-04-26T05:20:36.430Z,8.97
2023-04-26T05:21:36.516Z,9.41
2023-04-26T05:22:36.450Z,9.98
2023-04-26T05:23:36.394Z,9.59
2023-04-26T05:24:36.474Z,9.16
2023-04-26T05:25:36.451Z,8.79
2023-04-26T05:26:36.370Z,8.56
2023-04-26T05:27:36.379Z,8.71
2023-04-26T05:28:36.389Z,8.73
2023-04-26T05:29:36.373Z,8.71
2023-04-26T05:30:36.340Z,8.56
2023-04-26T05:31:36.393Z,8.81
2023-04-26T05:32:36.335Z,8.89
2023-04-26T05:33:36.325Z,8.79
2023-04-26T05:34:36.309Z,8.69
2023-04-26T05:35:36.299Z,9.10
2023-04-26T05:36:36.302Z,9.23
2023-04-26T05:37:36.337Z,9.61
2023-04-26T05:38:36.291Z,9.62
2023-04-26T05:39:36.286Z,9.74
2023-04-26T05:40:36.285Z,10.17
2023-04-26T05:41:36.315Z,10.44
2023-04-26T05:42:37.268Z,10.59
2023-04-26T05:43:36.264Z,10.60
2023-04-26T05:44:36.249Z,10.75
2023-04-26T05:45:36.273Z,10.51
2023-04-26T05:46:36.239Z,9.89
2023-04-26T05:47:37.223Z,10.07
2023-04-26T05:48:36.212Z,9.99
2023-04-26T05:49:36.201Z,9.92
2023-04-26T05:50:37.277Z,9.89
2023-04-26T05:51:36.169Z,10.23
2023-04-26T05:52:36.168Z,10.28
2023-04-26T05:53:36.174Z,10.59
2023-04-26T05:54:36.189Z,10.25
2023-04-26T05:55:36.146Z,10.42
2023-04-26T05:56:36.129Z,10.54
2023-04-26T05:57:36.219Z,11.22
2023-04-26T05:58:36.152Z,11.40
2023-04-26T05:59:36.148Z,11.62
2023-04-26T06:00:36.118Z,12.32
2023-04-26T06:01:36.094Z,12.91
2023-04-26T06:02:36.270Z,13.53
2023-04-26T06:03:36.433Z,13.68
2023-04-26T06:04:36.187Z,13.99
2023-04-26T06:05:36.079Z,13.05
2023-04-26T06:06:36.054Z,13.03
2023-04-26T06:07:36.050Z,13.31
2023-04-26T06:08:36.037Z,13.33
2023-04-26T06:09:36.013Z,13.11
2023-04-26T06:10:36.041Z,12.94
2023-04-26T06:11:36.007Z,13.44
2023-04-26T06:12:36.018Z,13.60
2023-04-26T06:13:35.997Z,13.79
2023-04-26T06:14:35.976Z,13.67
2023-04-26T06:15:35.975Z,13.63
2023-04-26T06:16:35.977Z,13.93
2023-04-26T06:17:36.029Z,14.25
2023-04-26T06:18:38.696Z,14.59
2023-04-26T06:19:35.966Z,15.03
2023-04-26T06:20:35.972Z,15.51
2023-04-26T06:21:35.946Z,15.79
2023-04-26T06:22:35.917Z,15.62
2023-04-26T06:23:35.905Z,14.92
2023-04-26T06:24:35.933Z,14.36
2023-04-26T06:25:35.927Z,14.25
2023-04-26T06:26:35.900Z,14.35
2023-04-26T06:27:35.916Z,14.54
2023-04-26T06:29:43.405Z,13.72
2023-04-26T06:30:43.403Z,13.38
2023-04-26T06:31:44.482Z,13.46
2023-04-26T06:32:44.545Z,14.20
2023-04-26T06:33:44.980Z,14.55
2023-04-26T06:34:44.462Z,14.99
2023-04-26T06:35:44.477Z,15.19
2023-04-26T06:36:45.935Z,15.86
2023-04-26T06:37:44.943Z,16.24
2023-04-26T06:38:44.429Z,15.91
2023-04-26T06:39:44.408Z,15.15
2023-04-26T06:40:44.419Z,15.55
2023-04-26T06:41:45.361Z,15.92
2023-04-26T06:42:44.432Z,16.17
2023-04-26T06:43:44.380Z,16.46
2023-04-26T06:44:44.416Z,16.41
2023-04-26T06:45:44.386Z,16.65
2023-04-26T06:46:44.423Z,16.79
2023-04-26T06:47:44.899Z,16.32
2023-04-26T06:48:44.364Z,15.55
2023-04-26T06:49:44.979Z,15.84
2023-04-26T06:50:44.324Z,16.42
2023-04-26T06:51:44.374Z,16.53
2023-04-26T06:52:44.319Z,17.14
2023-04-26T06:53:44.342Z,17.80
2023-04-26T06:54:56.045Z,18.05
2023-04-26T06:55:46.301Z,17.65
2023-04-26T06:56:44.296Z,17.23
2023-04-26T06:57:44.318Z,17.54
2023-04-26T06:58:56.901Z,18.04
2023-04-26T06:59:44.272Z,18.23
2023-04-26T07:00:44.248Z,16.72
2023-04-26T07:01:44.304Z,16.33
2023-04-26T07:02:44.359Z,16.58
2023-04-26T07:03:44.330Z,16.94
2023-04-26T07:04:44.520Z,17.24
2023-04-26T07:05:44.242Z,17.49
2023-04-26T07:06:44.261Z,17.63
2023-04-26T07:07:44.222Z,17.49
2023-04-26T07:08:44.219Z,16.51
2023-04-26T07:09:44.532Z,15.98
2023-04-26T07:10:44.171Z,14.69
2023-04-26T07:11:44.201Z,14.70
2023-04-26T07:12:44.201Z,15.52
2023-04-26T07:13:44.158Z,15.72
2023-04-26T07:14:44.877Z,15.98
2023-04-26T07:15:44.167Z,16.00
2023-04-26T07:16:44.510Z,17.05
2023-04-26T07:17:44.912Z,17.68
2023-04-26T07:19:31.851Z,18.31
2023-04-26T07:20:31.240Z,18.20
2023-04-26T07:21:31.248Z,18.45
2023-04-26T07:22:31.209Z,18.26
2023-04-26T07:23:31.216Z,18.35
2023-04-26T07:24:31.203Z,18.34
2023-04-26T07:25:31.207Z,18.98
2023-04-26T07:26:31.183Z,19.81
2023-04-26T07:27:32.270Z,20.44
2023-04-26T07:28:32.275Z,21.00
2023-04-26T07:29:32.265Z,19.89
2023-04-26T07:30:32.264Z,19.22
2023-04-26T07:31:32.250Z,18.56
2023-04-26T07:32:32.272Z,18.11
2023-04-26T07:33:32.363Z,17.87
2023-04-26T07:34:32.887Z,16.42
2023-04-26T07:35:32.216Z,15.40
2023-04-26T07:36:32.202Z,14.43
2023-04-26T07:37:32.358Z,13.95
2023-04-26T07:38:32.193Z,13.54
2023-04-26T07:39:32.244Z,13.38
2023-04-26T07:40:32.183Z,13.15
2023-04-26T07:41:32.187Z,12.83
2023-04-26T07:42:32.158Z,12.25
2023-04-26T07:43:32.141Z,12.50
2023-04-26T07:44:32.139Z,12.61
2023-04-26T07:45:32.147Z,12.64
2023-04-26T07:46:32.121Z,12.87
2023-04-26T07:47:32.191Z,12.97
2023-04-26T07:48:32.100Z,12.93
2023-04-26T07:49:32.098Z,12.57
2023-04-26T07:50:32.081Z,12.32
2023-04-26T07:51:32.080Z,11.70
2023-04-26T07:52:32.078Z,11.47
2023-04-26T07:53:32.112Z,11.41
2023-04-26T07:54:32.059Z,11.70
2023-04-26T07:55:32.061Z,11.70
2023-04-26T07:56:33.972Z,11.86
2023-04-26T07:57:32.050Z,11.41
2023-04-26T07:58:33.888Z,10.79
2023-04-26T07:59:32.056Z,10.81
2023-04-26T08:00:32.019Z,10.93
2023-04-26T08:01:32.006Z,11.12
2023-04-26T08:02:44.076Z,11.35
2023-04-26T08:03:35.285Z,11.57
2023-04-26T08:04:32.085Z,11.65
2023-04-26T08:05:32.277Z,11.63
2023-04-26T08:06:31.991Z,11.59
2023-04-26T08:07:31.988Z,11.63
2023-04-26T08:08:31.971Z,11.62
2023-04-26T08:09:31.964Z,11.73
2023-04-26T08:10:32.475Z,11.73
2023-04-26T08:11:33.028Z,11.68
2023-04-26T08:12:31.944Z,11.30
2023-04-26T08:13:31.928Z,10.60
2023-04-26T08:14:31.901Z,10.53
2023-04-26T08:15:31.897Z,10.40
2023-04-26T08:16:31.986Z,10.34
2023-04-26T08:17:32.929Z,10.23
2023-04-26T08:18:31.863Z,10.07
2023-04-26T08:19:31.977Z,10.15
2023-04-26T08:20:31.863Z,10.35
2023-04-26T08:21:32.479Z,10.57
2023-04-26T08:22:31.836Z,10.61
2023-04-26T08:23:31.857Z,10.71
2023-04-26T08:24:31.835Z,10.86
2023-04-26T08:25:32.178Z,10.74
2023-04-26T08:26:31.823Z,10.86
2023-04-26T08:27:31.813Z,10.92
2023-04-26T08:28:31.829Z,10.93
2023-04-26T08:29:31.813Z,10.82
2023-04-26T08:30:33.559Z,10.54
2023-04-26T08:31:31.926Z,10.33
2023-04-26T08:32:31.820Z,10.17
2023-04-26T08:33:31.802Z,9.95
2023-04-26T08:34:31.768Z,9.91
2023-04-26T08:35:31.749Z,9.99
2023-04-26T08:36:31.743Z,9.95
2023-04-26T08:37:31.782Z,10.12
2023-04-26T08:38:31.738Z,10.40
2023-04-26T08:39:31.768Z,10.60
2023-04-26T08:40:32.517Z,10.96
2023-04-26T08:41:31.713Z,11.22
2023-04-26T08:42:31.708Z,11.63
2023-04-26T08:43:31.698Z,11.78
2023-04-26T08:44:32.396Z,11.75
2023-04-26T08:45:32.481Z,11.91
2023-04-26T08:46:31.739Z,12.07
2023-04-26T08:47:31.808Z,12.25
2023-04-26T08:48:31.630Z,12.47
2023-04-26T08:49:31.617Z,12.50
2023-04-26T08:50:31.628Z,12.43
2023-04-26T08:51:31.639Z,12.62
2023-04-26T08:52:31.650Z,12.61
2023-04-26T08:53:31.619Z,12.62
2023-04-26T08:54:31.624Z,12.54
2023-04-26T08:55:31.609Z,11.86
2023-04-26T08:56:32.398Z,11.48
2023-04-26T08:57:31.628Z,11.22
2023-04-26T08:58:31.661Z,11.10
2023-04-26T08:59:31.572Z,11.19
2023-04-26T09:00:31.592Z,11.35
2023-04-26T09:01:31.556Z,11.41
2023-04-26T09:02:31.677Z,11.44
2023-04-26T09:03:31.729Z,11.60
2023-04-26T09:04:31.769Z,11.70
2023-04-26T09:05:32.524Z,11.72
2023-04-26T09:06:31.566Z,11.72
2023-04-26T09:07:32.530Z,11.99
2023-04-26T09:08:31.520Z,12.13
2023-04-26T09:09:31.476Z,12.29
2023-04-26T09:10:31.472Z,12.22
2023-04-26T09:11:31.467Z,12.36
2023-04-26T09:12:31.448Z,12.27
2023-04-26T09:13:31.493Z,12.22
2023-04-26T09:14:31.446Z,12.04
2023-04-26T09:15:31.466Z,11.81
2023-04-26T09:16:31.449Z,11.44
2023-04-26T09:17:31.455Z,11.45
2023-04-26T09:18:31.401Z,11.32
2023-04-26T09:19:31.403Z,11.37
2023-04-26T09:20:31.397Z,11.29
2023-04-26T09:21:31.387Z,11.29
2023-04-26T09:22:31.385Z,11.17
2023-04-26T09:23:31.358Z,10.93
2023-04-26T09:24:31.372Z,11.02
2023-04-26T09:25:31.374Z,11.18
2023-04-26T09:26:31.342Z,11.22
2023-04-26T09:27:31.349Z,10.81
2023-04-26T09:28:31.358Z,10.97
2023-04-26T09:29:31.307Z,11.15
2023-04-26T09:30:31.316Z,11.54
2023-04-26T09:31:31.983Z,11.65
2023-04-26T09:32:31.309Z,11.81
2023-04-26T09:33:31.289Z,12.03
2023-04-26T09:34:31.283Z,11.86
2023-04-26T09:35:31.278Z,11.95
2023-04-26T09:36:31.303Z,11.94
2023-04-26T09:37:31.279Z,11.70
2023-04-26T09:38:31.256Z,11.60
2023-04-26T09:39:31.269Z,11.40
2023-04-26T09:40:31.243Z,11.51
2023-04-26T09:41:31.234Z,11.50
2023-04-26T09:42:31.547Z,11.70
2023-04-26T09:43:31.221Z,11.77
2023-04-26T09:44:31.204Z,11.70
2023-04-26T09:45:31.992Z,11.47
2023-04-26T09:46:31.214Z,11.19
2023-04-26T09:47:31.219Z,11.15
2023-04-26T09:48:31.234Z,11.22
2023-04-26T09:49:31.161Z,11.26
2023-04-26T09:50:31.190Z,11.35
2023-04-26T09:51:31.197Z,11.32
2023-04-26T09:52:31.217Z,11.27
2023-04-26T09:53:31.230Z,11.43
2023-04-26T09:54:31.105Z,11.73
2023-04-26T09:55:34.787Z,12.09
2023-04-26T09:56:32.124Z,12.31
2023-04-26T09:57:31.127Z,12.67
2023-04-26T09:58:31.084Z,12.90
2023-04-26T09:59:31.091Z,13.03
2023-04-26T10:00:31.135Z,13.08
2023-04-26T10:01:31.266Z,13.04
2023-04-26T10:02:31.252Z,13.31
2023-04-26T10:03:31.180Z,13.47
2023-04-26T10:04:31.053Z,13.50
2023-04-26T10:05:32.415Z,13.75
2023-04-26T10:06:32.081Z,13.95
2023-04-26T10:07:31.024Z,14.12
2023-04-26T10:08:31.020Z,14.12
2023-04-26T10:09:31.019Z,13.99
2023-04-26T10:10:30.987Z,13.97
2023-04-26T10:11:31.021Z,13.71
2023-04-26T10:12:30.975Z,13.41
2023-04-26T10:13:30.973Z,13.16
2023-04-26T10:14:30.961Z,13.13
2023-04-26T10:15:30.963Z,12.98
2023-04-26T10:16:30.994Z,13.11
2023-04-26T10:17:30.980Z,12.45
2023-04-26T10:18:30.936Z,12.53
2023-04-26T10:19:30.945Z,12.60
2023-04-26T10:20:31.525Z,12.80
2023-04-26T10:21:30.924Z,12.93
2023-04-26T10:22:30.906Z,13.18
2023-04-26T10:23:30.921Z,13.00
2023-04-26T10:24:31.179Z,13.01
2023-04-26T10:25:30.874Z,13.15
2023-04-26T10:26:30.912Z,13.22
2023-04-26T10:27:30.883Z,13.11
2023-04-26T10:28:30.872Z,13.03
2023-04-26T10:29:30.843Z,12.87
2023-04-26T10:30:31.520Z,12.60
2023-04-26T10:31:30.888Z,11.97
2023-04-26T10:32:30.848Z,11.60
2023-04-26T10:33:30.849Z,11.37
2023-04-26T10:34:30.800Z,11.51
2023-04-26T10:35:30.846Z,11.66
2023-04-26T10:36:30.788Z,11.91
2023-04-26T10:37:30.792Z,11.90
2023-04-26T10:38:30.773Z,11.59
2023-04-26T10:39:30.785Z,11.02
2023-04-26T10:40:31.522Z,10.96
2023-04-26T10:41:30.780Z,10.97
2023-04-26T10:42:30.758Z,10.90
2023-04-26T10:43:30.760Z,10.87
2023-04-26T10:44:30.730Z,10.92
2023-04-26T10:45:30.741Z,10.87
2023-04-26T10:46:30.793Z,10.61
2023-04-26T10:47:30.801Z,10.72
2023-04-26T10:48:30.780Z,10.76
2023-04-26T10:49:30.744Z,10.94
2023-04-26T10:50:30.700Z,10.76
2023-04-26T10:51:30.676Z,10.82
2023-04-26T10:52:30.746Z,10.93
2023-04-26T10:53:30.705Z,10.90
2023-04-26T10:54:31.682Z,10.94
2023-04-26T10:55:30.668Z,11.14
2023-04-26T10:56:30.704Z,11.14
2023-04-26T10:57:30.633Z,11.40
2023-04-26T10:58:31.746Z,11.55
2023-04-26T10:59:43.384Z,11.75
2023-04-26T11:00:33.116Z,11.88
2023-04-26T11:01:31.665Z,11.81
2023-04-26T11:02:30.672Z,11.59
2023-04-26T11:03:30.697Z,11.73
2023-04-26T11:04:32.625Z,12.03
2023-04-26T11:05:30.601Z,12.32
2023-04-26T11:06:31.456Z,12.50
2023-04-26T11:07:30.555Z,12.72
2023-04-26T11:08:30.608Z,12.98
2023-04-26T11:09:30.553Z,13.05
2023-04-26T11:10:30.574Z,13.22
2023-04-26T11:11:30.538Z,13.15
2023-04-26T11:12:30.536Z,13.08
2023-04-26T11:13:30.527Z,13.04
2023-04-26T11:14:34.475Z,13.04
2023-04-26T11:15:30.514Z,12.95
2023-04-26T11:16:31.204Z,12.83
2023-04-26T11:17:30.596Z,12.90
2023-04-26T11:18:32.303Z,12.94
2023-04-26T11:20:03.066Z,12.86
2023-04-26T11:20:30.457Z,12.95
2023-04-26T11:21:30.991Z,12.47
2023-04-26T11:22:32.034Z,12.25
2023-04-26T11:23:30.426Z,11.94
2023-04-26T11:24:30.439Z,11.86
2023-04-26T11:25:30.422Z,11.99
2023-04-26T11:26:30.397Z,12.12
2023-04-26T11:27:31.046Z,12.20
2023-04-26T11:28:33.953Z,12.03
2023-04-26T11:29:30.396Z,12.03
2023-04-26T11:30:30.374Z,12.07
2023-04-26T11:31:30.430Z,12.04
2023-04-26T11:32:31.048Z,12.12
2023-04-26T11:33:30.372Z,12.09
2023-04-26T11:34:30.343Z,12.02
2023-04-26T11:35:30.350Z,11.48
2023-04-26T11:36:30.969Z,11.52
2023-04-26T11:37:30.326Z,11.68
2023-04-26T11:38:30.319Z,11.77
2023-04-26T11:39:30.310Z,12.09
2023-04-26T11:40:30.287Z,12.31
2023-04-26T11:41:30.276Z,12.57
2023-04-26T11:42:30.297Z,12.37
2023-04-26T11:43:30.394Z,12.02
2023-04-26T11:44:30.377Z,11.91
2023-04-26T11:45:30.243Z,12.09
2023-04-26T11:46:30.259Z,12.07
2023-04-26T11:47:30.245Z,12.12
2023-04-26T11:48:30.272Z,11.94
2023-04-26T11:49:30.217Z,11.90
2023-04-26T11:50:30.224Z,11.88
2023-04-26T11:51:30.692Z,12.02
2023-04-26T11:52:30.284Z,11.97
2023-04-26T11:53:30.316Z,12.06
2023-04-26T11:54:30.158Z,12.04
2023-04-26T11:55:30.197Z,11.97
2023-04-26T11:56:30.223Z,11.99
2023-04-26T11:57:31.051Z,11.77
2023-04-26T11:58:30.145Z,11.91
2023-04-26T11:59:30.147Z,12.09
2023-04-26T12:00:30.129Z,12.03
2023-04-26T12:01:30.127Z,11.81
2023-04-26T12:02:30.271Z,11.66
2023-04-26T12:03:30.233Z,11.65
2023-04-26T12:04:31.251Z,11.72
2023-04-26T12:05:31.188Z,11.65
2023-04-26T12:06:30.083Z,11.63
2023-04-26T12:07:30.072Z,11.88
2023-04-26T12:08:30.090Z,12.12
2023-04-26T12:09:31.098Z,12.29
2023-04-26T12:10:30.100Z,12.55
2023-04-26T12:11:36.981Z,12.72
2023-04-26T12:12:30.023Z,12.79
2023-04-26T12:13:30.977Z,12.57
2023-04-26T12:14:30.004Z,12.53
2023-04-26T12:15:30.026Z,12.35
2023-04-26T12:16:30.553Z,12.18
2023-04-26T12:17:30.124Z,12.04
2023-04-26T12:18:30.044Z,11.83
2023-04-26T12:19:29.969Z,11.81
2023-04-26T12:20:29.964Z,11.77
2023-04-26T12:21:31.055Z,11.75
2023-04-26T12:22:30.951Z,11.81
2023-04-26T12:23:32.530Z,11.81
2023-04-26T12:24:30.587Z,11.84
2023-04-26T12:25:29.976Z,11.84
2023-04-26T12:26:29.927Z,12.03
2023-04-26T12:27:30.493Z,12.06
2023-04-26T12:28:29.931Z,12.20
2023-04-26T12:29:29.944Z,12.47
2023-04-26T12:30:29.883Z,12.70
2023-04-26T12:31:29.920Z,12.76
2023-04-26T12:32:29.872Z,12.58
2023-04-26T12:33:29.874Z,12.64
2023-04-26T12:34:29.860Z,12.73
2023-04-26T12:35:30.488Z,12.80
2023-04-26T12:36:29.842Z,12.90
2023-04-26T12:37:30.899Z,12.53
2023-04-26T12:38:31.448Z,11.95
2023-04-26T12:39:29.820Z,11.83
2023-04-26T12:40:29.820Z,11.88
2023-04-26T12:41:29.808Z,12.00
2023-04-26T12:42:29.835Z,12.13
2023-04-26T12:43:29.783Z,12.32
2023-04-26T12:44:30.798Z,12.39
2023-04-26T12:45:29.795Z,12.61
2023-04-26T12:46:29.776Z,12.83
2023-04-26T12:47:31.694Z,12.80
2023-04-26T12:48:29.873Z,12.86
2023-04-26T12:49:31.563Z,13.03
2023-04-26T12:50:30.523Z,13.16
2023-04-26T12:51:29.730Z,13.13
2023-04-26T12:52:29.736Z,13.35
2023-04-26T12:53:30.725Z,13.39
2023-04-26T12:54:29.737Z,13.42
2023-04-26T12:55:32.482Z,13.25
2023-04-26T12:56:30.701Z,12.87
2023-04-26T12:57:29.746Z,12.65
2023-04-26T12:58:29.667Z,12.86
2023-04-26T12:59:29.672Z,12.83
2023-04-26T13:00:29.846Z,13.13
2023-04-26T13:01:29.681Z,13.09
2023-04-26T13:02:29.817Z,13.22
2023-04-26T13:03:29.762Z,13.18
2023-04-26T13:04:29.865Z,13.30
2023-04-26T13:05:29.636Z,13.47
2023-04-26T13:06:29.610Z,13.35